sensor_id;sensor_type;location;lat;lon;timestamp;P1;durP1;ratioP1;P2;durP2;ratioP2
17398;SDS011;8817;48.170;8.592;2022-11-21T00:01:18;3.10;;;3.10;;
17398;SDS011;8817;48.170;8.592;2022-11-21T00:03:46;3.53;;;3.33;;
17398;SDS011;8817;48.170;8.592;2022-11-21T00:06:13;3.10;;;3.10;;
17398;SDS011;8817;48.170;8.592;2022-11-21T00:08:39;3.20;;;3.20;;
17398;SDS011;8817;48.170;8.592;2022-11-21T00:11:06;3.33;;;3.30;;
17398;SDS011;8817;48.170;8.592;2022-11-21T00:13:33;2.90;;;2.90;;
17398;SDS011;8817;48.170;8.592;2022-11-21T00:16:06;2.90;;;2.70;;
17398;SDS011;8817;48.170;8.592;2022-11-21T00:18:34;3.00;;;3.00;;
17398;SDS011;8817;48.170;8.592;2022-11-21T00:21:04;3.17;;;3.00;;
17398;SDS011;8817;48.170;8.592;2022-11-21T00:23:32;3.30;;;3.30;;
17398;SDS011;8817;48.170;8.592;2022-11-21T00:26:02;3.30;;;3.20;;
17398;SDS011;8817;48.170;8.592;2022-11-21T00:28:29;3.20;;;3.20;;
17398;SDS011;8817;48.170;8.592;2022-11-21T00:30:56;3.30;;;3.17;;
17398;SDS011;8817;48.170;8.592;2022-11-21T00:33:24;3.03;;;3.00;;
17398;SDS011;8817;48.170;8.592;2022-11-21T00:35:51;3.13;;;3.13;;
17398;SDS011;8817;48.170;8.592;2022-11-21T00:38:18;2.80;;;2.80;;
17398;SDS011;8817;48.170;8.592;2022-11-21T00:40:45;3.13;;;3.10;;
17398;SDS011;8817;48.170;8.592;2022-11-21T00:43:12;3.20;;;3.20;;
17398;SDS011;8817;48.170;8.592;2022-11-21T00:45:39;3.17;;;3.13;;
17398;SDS011;8817;48.170;8.592;2022-11-21T00:48:06;4.93;;;3.40;;
17398;SDS011;8817;48.170;8.592;2022-11-21T00:50:34;3.27;;;3.27;;
17398;SDS011;8817;48.170;8.592;2022-11-21T00:53:01;2.90;;;2.90;;
17398;SDS011;8817;48.170;8.592;2022-11-21T00:55:28;2.90;;;2.90;;
17398;SDS011;8817;48.170;8.592;2022-11-21T00:57:57;3.03;;;3.03;;
17398;SDS011;8817;48.170;8.592;2022-11-21T01:00:24;3.00;;;3.00;;
17398;SDS011;8817;48.170;8.592;2022-11-21T01:02:51;3.20;;;3.13;;
17398;SDS011;8817;48.170;8.592;2022-11-21T01:05:18;3.17;;;3.17;;
17398;SDS011;8817;48.170;8.592;2022-11-21T01:07:48;3.10;;;3.10;;
17398;SDS011;8817;48.170;8.592;2022-11-21T01:10:16;3.10;;;3.10;;
17398;SDS011;8817;48.170;8.592;2022-11-21T01:12:43;2.97;;;2.97;;
17398;SDS011;8817;48.170;8.592;2022-11-21T01:15:10;3.20;;;3.20;;
17398;SDS011;8817;48.170;8.592;2022-11-21T01:17:37;2.80;;;2.80;;
17398;SDS011;8817;48.170;8.592;2022-11-21T01:20:04;3.07;;;3.07;;
17398;SDS011;8817;48.170;8.592;2022-11-21T01:22:32;3.00;;;3.00;;
17398;SDS011;8817;48.170;8.592;2022-11-21T01:25:00;3.20;;;3.20;;
17398;SDS011;8817;48.170;8.592;2022-11-21T01:27:27;3.30;;;3.27;;
17398;SDS011;8817;48.170;8.592;2022-11-21T01:29:54;3.17;;;3.13;;
17398;SDS011;8817;48.170;8.592;2022-11-21T01:32:21;3.30;;;3.20;;
17398;SDS011;8817;48.170;8.592;2022-11-21T01:34:48;3.20;;;3.17;;
17398;SDS011;8817;48.170;8.592;2022-11-21T01:37:15;3.43;;;3.10;;
17398;SDS011;8817;48.170;8.592;2022-11-21T01:39:41;3.20;;;3.10;;
17398;SDS011;8817;48.170;8.592;2022-11-21T01:42:10;3.40;;;3.30;;
17398;SDS011;8817;48.170;8.592;2022-11-21T01:44:45;3.13;;;3.13;;
17398;SDS011;8817;48.170;8.592;2022-11-21T01:47:14;3.10;;;3.10;;
17398;SDS011;8817;48.170;8.592;2022-11-21T01:49:41;3.10;;;3.10;;
17398;SDS011;8817;48.170;8.592;2022-11-21T01:52:10;3.20;;;3.20;;
17398;SDS011;8817;48.170;8.592;2022-11-21T01:54:41;3.20;;;3.20;;
17398;SDS011;8817;48.170;8.592;2022-11-21T01:57:13;3.10;;;3.10;;
17398;SDS011;8817;48.170;8.592;2022-11-21T01:59:45;3.47;;;3.40;;
17398;SDS011;8817;48.170;8.592;2022-11-21T02:02:16;3.80;;;3.60;;
17398;SDS011;8817;48.170;8.592;2022-11-21T02:04:46;3.20;;;3.20;;
17398;SDS011;8817;48.170;8.592;2022-11-21T02:07:16;7.10;;;3.53;;
17398;SDS011;8817;48.170;8.592;2022-11-21T02:09:45;3.40;;;3.40;;
17398;SDS011;8817;48.170;8.592;2022-11-21T02:12:20;3.63;;;3.60;;
17398;SDS011;8817;48.170;8.592;2022-11-21T02:14:50;4.07;;;3.70;;
17398;SDS011;8817;48.170;8.592;2022-11-21T02:17:18;4.03;;;3.60;;
17398;SDS011;8817;48.170;8.592;2022-11-21T02:19:46;3.60;;;3.50;;
17398;SDS011;8817;48.170;8.592;2022-11-21T02:22:22;3.90;;;3.70;;
17398;SDS011;8817;48.170;8.592;2022-11-21T02:25:00;3.90;;;3.60;;
17398;SDS011;8817;48.170;8.592;2022-11-21T02:27:29;4.10;;;3.90;;
17398;SDS011;8817;48.170;8.592;2022-11-21T02:29:56;4.00;;;3.90;;
17398;SDS011;8817;48.170;8.592;2022-11-21T02:32:24;3.50;;;3.50;;
17398;SDS011;8817;48.170;8.592;2022-11-21T02:34:57;3.63;;;3.53;;
17398;SDS011;8817;48.170;8.592;2022-11-21T02:37:24;3.80;;;3.60;;
17398;SDS011;8817;48.170;8.592;2022-11-21T02:39:51;4.00;;;3.90;;
17398;SDS011;8817;48.170;8.592;2022-11-21T02:42:22;3.60;;;3.50;;
17398;SDS011;8817;48.170;8.592;2022-11-21T02:44:55;3.60;;;3.60;;
17398;SDS011;8817;48.170;8.592;2022-11-21T02:47:33;3.50;;;3.50;;
17398;SDS011;8817;48.170;8.592;2022-11-21T02:50:04;3.70;;;3.60;;
17398;SDS011;8817;48.170;8.592;2022-11-21T02:52:35;3.40;;;3.40;;
17398;SDS011;8817;48.170;8.592;2022-11-21T02:55:03;3.63;;;3.43;;
17398;SDS011;8817;48.170;8.592;2022-11-21T02:57:31;3.50;;;3.50;;
17398;SDS011;8817;48.170;8.592;2022-11-21T02:59:58;3.87;;;3.77;;
17398;SDS011;8817;48.170;8.592;2022-11-21T03:02:25;3.70;;;3.60;;
17398;SDS011;8817;48.170;8.592;2022-11-21T03:04:52;3.50;;;3.50;;
17398;SDS011;8817;48.170;8.592;2022-11-21T03:07:19;3.53;;;3.53;;
17398;SDS011;8817;48.170;8.592;2022-11-21T03:09:46;3.83;;;3.73;;
17398;SDS011;8817;48.170;8.592;2022-11-21T03:12:13;3.77;;;3.67;;
17398;SDS011;8817;48.170;8.592;2022-11-21T03:14:41;3.80;;;3.70;;
17398;SDS011;8817;48.170;8.592;2022-11-21T03:17:08;4.00;;;3.70;;
17398;SDS011;8817;48.170;8.592;2022-11-21T03:19:35;3.70;;;3.60;;
17398;SDS011;8817;48.170;8.592;2022-11-21T03:22:02;4.47;;;4.17;;
17398;SDS011;8817;48.170;8.592;2022-11-21T03:24:29;4.20;;;3.80;;
17398;SDS011;8817;48.170;8.592;2022-11-21T03:26:56;4.10;;;3.90;;
17398;SDS011;8817;48.170;8.592;2022-11-21T03:29:23;3.77;;;3.67;;
17398;SDS011;8817;48.170;8.592;2022-11-21T03:31:51;3.90;;;3.80;;
17398;SDS011;8817;48.170;8.592;2022-11-21T03:34:18;3.27;;;3.27;;
17398;SDS011;8817;48.170;8.592;2022-11-21T03:36:45;3.47;;;3.47;;
17398;SDS011;8817;48.170;8.592;2022-11-21T03:39:12;3.50;;;3.40;;
17398;SDS011;8817;48.170;8.592;2022-11-21T03:41:38;4.00;;;3.77;;
17398;SDS011;8817;48.170;8.592;2022-11-21T03:44:06;3.80;;;3.70;;
17398;SDS011;8817;48.170;8.592;2022-11-21T03:46:34;4.00;;;3.70;;
17398;SDS011;8817;48.170;8.592;2022-11-21T03:49:04;3.60;;;3.50;;
17398;SDS011;8817;48.170;8.592;2022-11-21T03:51:31;3.87;;;3.77;;
17398;SDS011;8817;48.170;8.592;2022-11-21T03:53:59;3.43;;;3.40;;
17398;SDS011;8817;48.170;8.592;2022-11-21T03:56:25;4.30;;;3.90;;
17398;SDS011;8817;48.170;8.592;2022-11-21T03:58:53;3.77;;;3.67;;
17398;SDS011;8817;48.170;8.592;2022-11-21T04:01:20;3.93;;;3.73;;
17398;SDS011;8817;48.170;8.592;2022-11-21T04:03:47;3.70;;;3.63;;
17398;SDS011;8817;48.170;8.592;2022-11-21T04:06:17;3.90;;;3.80;;
17398;SDS011;8817;48.170;8.592;2022-11-21T04:08:45;3.90;;;3.80;;
17398;SDS011;8817;48.170;8.592;2022-11-21T04:11:13;4.00;;;3.90;;
17398;SDS011;8817;48.170;8.592;2022-11-21T04:13:40;4.00;;;3.80;;
17398;SDS011;8817;48.170;8.592;2022-11-21T04:16:06;3.57;;;3.57;;
17398;SDS011;8817;48.170;8.592;2022-11-21T04:18:34;3.30;;;3.30;;
17398;SDS011;8817;48.170;8.592;2022-11-21T04:21:02;3.40;;;3.40;;
17398;SDS011;8817;48.170;8.592;2022-11-21T04:23:32;3.50;;;3.50;;
17398;SDS011;8817;48.170;8.592;2022-11-21T04:25:59;3.50;;;3.50;;
17398;SDS011;8817;48.170;8.592;2022-11-21T04:28:26;3.63;;;3.63;;
17398;SDS011;8817;48.170;8.592;2022-11-21T04:30:53;3.50;;;3.50;;
17398;SDS011;8817;48.170;8.592;2022-11-21T04:33:20;3.70;;;3.70;;
17398;SDS011;8817;48.170;8.592;2022-11-21T04:35:46;3.60;;;3.60;;
17398;SDS011;8817;48.170;8.592;2022-11-21T04:38:13;3.70;;;3.70;;
17398;SDS011;8817;48.170;8.592;2022-11-21T04:40:42;3.60;;;3.60;;
17398;SDS011;8817;48.170;8.592;2022-11-21T04:43:10;3.60;;;3.60;;
17398;SDS011;8817;48.170;8.592;2022-11-21T04:45:37;3.70;;;3.60;;
17398;SDS011;8817;48.170;8.592;2022-11-21T04:48:04;3.97;;;3.87;;
17398;SDS011;8817;48.170;8.592;2022-11-21T04:50:31;3.53;;;3.53;;
17398;SDS011;8817;48.170;8.592;2022-11-21T04:52:58;3.80;;;3.70;;
17398;SDS011;8817;48.170;8.592;2022-11-21T04:55:26;3.50;;;3.50;;
17398;SDS011;8817;48.170;8.592;2022-11-21T04:57:56;3.67;;;3.63;;
17398;SDS011;8817;48.170;8.592;2022-11-21T05:00:24;3.90;;;3.80;;
17398;SDS011;8817;48.170;8.592;2022-11-21T05:02:50;4.43;;;4.23;;
17398;SDS011;8817;48.170;8.592;2022-11-21T05:05:17;4.33;;;4.03;;
17398;SDS011;8817;48.170;8.592;2022-11-21T05:07:44;4.10;;;3.90;;
17398;SDS011;8817;48.170;8.592;2022-11-21T05:10:11;4.00;;;3.90;;
17398;SDS011;8817;48.170;8.592;2022-11-21T05:12:38;4.30;;;4.20;;
17398;SDS011;8817;48.170;8.592;2022-11-21T05:15:23;4.00;;;4.00;;
17398;SDS011;8817;48.170;8.592;2022-11-21T05:17:50;3.97;;;3.87;;
17398;SDS011;8817;48.170;8.592;2022-11-21T05:20:18;3.87;;;3.87;;
17398;SDS011;8817;48.170;8.592;2022-11-21T05:22:46;4.70;;;4.07;;
17398;SDS011;8817;48.170;8.592;2022-11-21T05:25:16;3.83;;;3.73;;
17398;SDS011;8817;48.170;8.592;2022-11-21T05:27:43;3.73;;;3.60;;
17398;SDS011;8817;48.170;8.592;2022-11-21T05:30:10;6.17;;;4.03;;
17398;SDS011;8817;48.170;8.592;2022-11-21T05:32:39;3.90;;;3.80;;
17398;SDS011;8817;48.170;8.592;2022-11-21T05:35:06;4.27;;;4.07;;
17398;SDS011;8817;48.170;8.592;2022-11-21T05:37:33;3.87;;;3.77;;
17398;SDS011;8817;48.170;8.592;2022-11-21T05:40:00;3.97;;;3.87;;
17398;SDS011;8817;48.170;8.592;2022-11-21T05:42:27;4.10;;;4.00;;
17398;SDS011;8817;48.170;8.592;2022-11-21T05:45:11;4.40;;;4.10;;
17398;SDS011;8817;48.170;8.592;2022-11-21T05:47:41;3.90;;;3.80;;
17398;SDS011;8817;48.170;8.592;2022-11-21T05:50:08;4.43;;;4.23;;
17398;SDS011;8817;48.170;8.592;2022-11-21T05:52:35;4.07;;;3.87;;
17398;SDS011;8817;48.170;8.592;2022-11-21T05:55:02;4.00;;;3.80;;
17398;SDS011;8817;48.170;8.592;2022-11-21T05:57:29;4.20;;;3.80;;
17398;SDS011;8817;48.170;8.592;2022-11-21T05:59:56;3.97;;;3.87;;
17398;SDS011;8817;48.170;8.592;2022-11-21T06:02:23;6.63;;;4.00;;
17398;SDS011;8817;48.170;8.592;2022-11-21T06:05:09;4.20;;;4.10;;
17398;SDS011;8817;48.170;8.592;2022-11-21T06:07:36;4.03;;;3.90;;
17398;SDS011;8817;48.170;8.592;2022-11-21T06:10:03;4.60;;;4.27;;
17398;SDS011;8817;48.170;8.592;2022-11-21T06:12:30;3.87;;;3.83;;
17398;SDS011;8817;48.170;8.592;2022-11-21T06:14:57;3.90;;;3.80;;
17398;SDS011;8817;48.170;8.592;2022-11-21T06:17:24;3.70;;;3.60;;
17398;SDS011;8817;48.170;8.592;2022-11-21T06:19:50;4.00;;;3.93;;
17398;SDS011;8817;48.170;8.592;2022-11-21T06:22:19;4.00;;;3.90;;
17398;SDS011;8817;48.170;8.592;2022-11-21T06:24:46;3.80;;;3.80;;
17398;SDS011;8817;48.170;8.592;2022-11-21T06:27:13;4.53;;;4.27;;
17398;SDS011;8817;48.170;8.592;2022-11-21T06:29:40;5.67;;;5.10;;
17398;SDS011;8817;48.170;8.592;2022-11-21T06:32:06;4.70;;;4.40;;
17398;SDS011;8817;48.170;8.592;2022-11-21T06:34:33;5.43;;;4.47;;
17398;SDS011;8817;48.170;8.592;2022-11-21T06:37:00;4.30;;;4.20;;
17398;SDS011;8817;48.170;8.592;2022-11-21T06:39:28;4.87;;;4.60;;
17398;SDS011;8817;48.170;8.592;2022-11-21T06:41:55;5.47;;;5.03;;
17398;SDS011;8817;48.170;8.592;2022-11-21T06:44:23;5.10;;;4.80;;
17398;SDS011;8817;48.170;8.592;2022-11-21T06:46:49;5.23;;;4.90;;
17398;SDS011;8817;48.170;8.592;2022-11-21T06:49:16;6.57;;;5.97;;
17398;SDS011;8817;48.170;8.592;2022-11-21T06:51:43;6.23;;;5.73;;
17398;SDS011;8817;48.170;8.592;2022-11-21T06:54:10;5.93;;;5.53;;
17398;SDS011;8817;48.170;8.592;2022-11-21T06:56:38;5.47;;;5.17;;
17398;SDS011;8817;48.170;8.592;2022-11-21T06:59:05;5.13;;;4.83;;
17398;SDS011;8817;48.170;8.592;2022-11-21T07:01:32;4.87;;;4.63;;
17398;SDS011;8817;48.170;8.592;2022-11-21T07:03:59;4.93;;;4.60;;
17398;SDS011;8817;48.170;8.592;2022-11-21T07:06:26;4.60;;;4.40;;
17398;SDS011;8817;48.170;8.592;2022-11-21T07:08:53;4.50;;;4.40;;
17398;SDS011;8817;48.170;8.592;2022-11-21T07:11:20;5.40;;;5.03;;
17398;SDS011;8817;48.170;8.592;2022-11-21T07:13:48;5.07;;;4.77;;
17398;SDS011;8817;48.170;8.592;2022-11-21T07:16:14;7.33;;;4.90;;
17398;SDS011;8817;48.170;8.592;2022-11-21T07:18:41;4.90;;;4.70;;
17398;SDS011;8817;48.170;8.592;2022-11-21T07:21:09;5.07;;;4.67;;
17398;SDS011;8817;48.170;8.592;2022-11-21T07:23:36;4.80;;;4.60;;
17398;SDS011;8817;48.170;8.592;2022-11-21T07:26:04;4.80;;;4.50;;
17398;SDS011;8817;48.170;8.592;2022-11-21T07:28:32;4.70;;;4.40;;
17398;SDS011;8817;48.170;8.592;2022-11-21T07:31:01;5.00;;;4.60;;
17398;SDS011;8817;48.170;8.592;2022-11-21T07:33:28;5.47;;;5.07;;
17398;SDS011;8817;48.170;8.592;2022-11-21T07:35:55;5.03;;;4.67;;
17398;SDS011;8817;48.170;8.592;2022-11-21T07:38:23;4.57;;;4.37;;
17398;SDS011;8817;48.170;8.592;2022-11-21T07:40:50;4.53;;;4.33;;
17398;SDS011;8817;48.170;8.592;2022-11-21T07:43:17;4.20;;;4.10;;
17398;SDS011;8817;48.170;8.592;2022-11-21T07:45:44;4.87;;;4.50;;
17398;SDS011;8817;48.170;8.592;2022-11-21T07:48:13;4.43;;;4.10;;
17398;SDS011;8817;48.170;8.592;2022-11-21T07:50:40;4.50;;;4.30;;
17398;SDS011;8817;48.170;8.592;2022-11-21T07:53:08;6.73;;;4.10;;
17398;SDS011;8817;48.170;8.592;2022-11-21T07:55:35;4.33;;;4.13;;
17398;SDS011;8817;48.170;8.592;2022-11-21T07:58:02;4.27;;;4.10;;
17398;SDS011;8817;48.170;8.592;2022-11-21T08:00:31;4.13;;;4.03;;
17398;SDS011;8817;48.170;8.592;2022-11-21T08:03:00;4.50;;;4.40;;
17398;SDS011;8817;48.170;8.592;2022-11-21T08:05:28;4.07;;;3.97;;
17398;SDS011;8817;48.170;8.592;2022-11-21T08:07:55;4.10;;;4.00;;
17398;SDS011;8817;48.170;8.592;2022-11-21T08:10:22;4.17;;;4.00;;
17398;SDS011;8817;48.170;8.592;2022-11-21T08:12:49;5.43;;;3.83;;
17398;SDS011;8817;48.170;8.592;2022-11-21T08:15:16;4.33;;;4.00;;
17398;SDS011;8817;48.170;8.592;2022-11-21T08:17:42;4.20;;;4.00;;
17398;SDS011;8817;48.170;8.592;2022-11-21T08:20:09;4.03;;;3.83;;
17398;SDS011;8817;48.170;8.592;2022-11-21T08:22:38;4.20;;;3.97;;
17398;SDS011;8817;48.170;8.592;2022-11-21T08:25:06;4.20;;;4.00;;
17398;SDS011;8817;48.170;8.592;2022-11-21T08:27:34;4.20;;;4.10;;
17398;SDS011;8817;48.170;8.592;2022-11-21T08:30:02;4.00;;;3.90;;
17398;SDS011;8817;48.170;8.592;2022-11-21T08:32:30;4.00;;;3.63;;
17398;SDS011;8817;48.170;8.592;2022-11-21T08:34:57;3.83;;;3.63;;
17398;SDS011;8817;48.170;8.592;2022-11-21T08:37:25;4.77;;;3.73;;
17398;SDS011;8817;48.170;8.592;2022-11-21T08:39:54;3.93;;;3.83;;
17398;SDS011;8817;48.170;8.592;2022-11-21T08:42:23;4.40;;;4.10;;
17398;SDS011;8817;48.170;8.592;2022-11-21T08:44:50;4.20;;;4.00;;
17398;SDS011;8817;48.170;8.592;2022-11-21T08:47:16;4.00;;;3.90;;
17398;SDS011;8817;48.170;8.592;2022-11-21T08:49:44;4.00;;;3.90;;
17398;SDS011;8817;48.170;8.592;2022-11-21T08:52:11;3.70;;;3.60;;
17398;SDS011;8817;48.170;8.592;2022-11-21T08:54:38;4.10;;;4.00;;
17398;SDS011;8817;48.170;8.592;2022-11-21T08:57:07;3.93;;;3.83;;
17398;SDS011;8817;48.170;8.592;2022-11-21T08:59:33;5.87;;;4.40;;
17398;SDS011;8817;48.170;8.592;2022-11-21T09:02:00;4.93;;;4.63;;
17398;SDS011;8817;48.170;8.592;2022-11-21T09:04:27;10.37;;;4.50;;
17398;SDS011;8817;48.170;8.592;2022-11-21T09:06:54;4.70;;;4.40;;
17398;SDS011;8817;48.170;8.592;2022-11-21T09:09:21;3.93;;;3.83;;
17398;SDS011;8817;48.170;8.592;2022-11-21T09:11:48;4.90;;;4.50;;
17398;SDS011;8817;48.170;8.592;2022-11-21T09:14:16;4.80;;;4.50;;
17398;SDS011;8817;48.170;8.592;2022-11-21T09:17:00;4.40;;;4.20;;
17398;SDS011;8817;48.170;8.592;2022-11-21T09:19:45;4.60;;;4.40;;
17398;SDS011;8817;48.170;8.592;2022-11-21T09:22:11;4.80;;;4.53;;
17398;SDS011;8817;48.170;8.592;2022-11-21T09:24:38;5.07;;;4.50;;
17398;SDS011;8817;48.170;8.592;2022-11-21T09:27:05;4.60;;;4.30;;
17398;SDS011;8817;48.170;8.592;2022-11-21T09:29:33;4.17;;;3.97;;
17398;SDS011;8817;48.170;8.592;2022-11-21T09:32:00;4.40;;;4.20;;
17398;SDS011;8817;48.170;8.592;2022-11-21T09:34:27;4.40;;;4.07;;
17398;SDS011;8817;48.170;8.592;2022-11-21T09:36:55;4.13;;;3.87;;
17398;SDS011;8817;48.170;8.592;2022-11-21T09:39:22;4.40;;;4.20;;
17398;SDS011;8817;48.170;8.592;2022-11-21T09:41:52;4.30;;;4.10;;
17398;SDS011;8817;48.170;8.592;2022-11-21T09:44:34;4.27;;;4.10;;
17398;SDS011;8817;48.170;8.592;2022-11-21T09:47:11;3.90;;;3.80;;
17398;SDS011;8817;48.170;8.592;2022-11-21T09:49:50;7.20;;;3.70;;
17398;SDS011;8817;48.170;8.592;2022-11-21T09:52:22;4.40;;;4.20;;
17398;SDS011;8817;48.170;8.592;2022-11-21T09:54:53;4.43;;;4.27;;
17398;SDS011;8817;48.170;8.592;2022-11-21T09:57:24;4.27;;;4.10;;
17398;SDS011;8817;48.170;8.592;2022-11-21T09:59:52;4.40;;;4.20;;
17398;SDS011;8817;48.170;8.592;2022-11-21T10:02:20;4.73;;;4.00;;
17398;SDS011;8817;48.170;8.592;2022-11-21T10:04:49;4.33;;;3.93;;
17398;SDS011;8817;48.170;8.592;2022-11-21T10:07:19;4.10;;;3.90;;
17398;SDS011;8817;48.170;8.592;2022-11-21T10:09:59;4.10;;;4.00;;
17398;SDS011;8817;48.170;8.592;2022-11-21T10:12:36;4.00;;;3.90;;
17398;SDS011;8817;48.170;8.592;2022-11-21T10:15:21;3.90;;;3.80;;
17398;SDS011;8817;48.170;8.592;2022-11-21T10:18:07;3.67;;;3.57;;
17398;SDS011;8817;48.170;8.592;2022-11-21T10:20:53;7.03;;;4.00;;
17398;SDS011;8817;48.170;8.592;2022-11-21T10:23:30;3.93;;;3.83;;
17398;SDS011;8817;48.170;8.592;2022-11-21T10:26:20;3.97;;;3.60;;
17398;SDS011;8817;48.170;8.592;2022-11-21T10:28:53;4.00;;;3.80;;
17398;SDS011;8817;48.170;8.592;2022-11-21T10:31:25;3.83;;;3.73;;
17398;SDS011;8817;48.170;8.592;2022-11-21T10:33:56;3.80;;;3.70;;
17398;SDS011;8817;48.170;8.592;2022-11-21T10:36:25;3.77;;;3.67;;
17398;SDS011;8817;48.170;8.592;2022-11-21T10:38:57;4.47;;;4.20;;
17398;SDS011;8817;48.170;8.592;2022-11-21T10:41:28;3.83;;;3.70;;
17398;SDS011;8817;48.170;8.592;2022-11-21T10:44:08;3.90;;;3.70;;
17398;SDS011;8817;48.170;8.592;2022-11-21T10:47:01;3.70;;;3.67;;
17398;SDS011;8817;48.170;8.592;2022-11-21T10:49:39;3.80;;;3.70;;
17398;SDS011;8817;48.170;8.592;2022-11-21T10:52:09;4.07;;;3.87;;
17398;SDS011;8817;48.170;8.592;2022-11-21T10:57:31;3.80;;;3.70;;
17398;SDS011;8817;48.170;8.592;2022-11-21T11:00:12;3.90;;;3.60;;
17398;SDS011;8817;48.170;8.592;2022-11-21T11:02:58;3.77;;;3.57;;
17398;SDS011;8817;48.170;8.592;2022-11-21T11:05:41;3.83;;;3.73;;
17398;SDS011;8817;48.170;8.592;2022-11-21T11:08:20;3.67;;;3.57;;
17398;SDS011;8817;48.170;8.592;2022-11-21T11:10:59;3.90;;;3.50;;
17398;SDS011;8817;48.170;8.592;2022-11-21T11:13:29;4.03;;;3.70;;
17398;SDS011;8817;48.170;8.592;2022-11-21T11:16:04;3.67;;;3.53;;
17398;SDS011;8817;48.170;8.592;2022-11-21T11:18:44;3.67;;;3.43;;
17398;SDS011;8817;48.170;8.592;2022-11-21T11:21:15;5.90;;;3.40;;
17398;SDS011;8817;48.170;8.592;2022-11-21T11:23:44;3.37;;;3.37;;
17398;SDS011;8817;48.170;8.592;2022-11-21T11:26:23;3.93;;;3.83;;
17398;SDS011;8817;48.170;8.592;2022-11-21T11:28:52;3.70;;;3.40;;
17398;SDS011;8817;48.170;8.592;2022-11-21T11:31:23;3.70;;;3.60;;
17398;SDS011;8817;48.170;8.592;2022-11-21T11:33:53;4.10;;;3.90;;
17398;SDS011;8817;48.170;8.592;2022-11-21T11:36:33;4.00;;;3.90;;
17398;SDS011;8817;48.170;8.592;2022-11-21T11:39:08;4.00;;;3.80;;
17398;SDS011;8817;48.170;8.592;2022-11-21T11:41:51;3.93;;;3.50;;
17398;SDS011;8817;48.170;8.592;2022-11-21T11:44:55;3.43;;;3.40;;
17398;SDS011;8817;48.170;8.592;2022-11-21T11:47:50;3.60;;;3.50;;
17398;SDS011;8817;48.170;8.592;2022-11-21T11:50:21;3.40;;;3.40;;
17398;SDS011;8817;48.170;8.592;2022-11-21T11:52:56;3.70;;;3.60;;
17398;SDS011;8817;48.170;8.592;2022-11-21T11:55:30;4.40;;;3.77;;
17398;SDS011;8817;48.170;8.592;2022-11-21T11:58:02;3.67;;;3.57;;
17398;SDS011;8817;48.170;8.592;2022-11-21T12:00:37;3.40;;;3.30;;
17398;SDS011;8817;48.170;8.592;2022-11-21T12:03:10;3.43;;;3.43;;
17398;SDS011;8817;48.170;8.592;2022-11-21T12:05:44;3.97;;;3.47;;
17398;SDS011;8817;48.170;8.592;2022-11-21T12:08:22;3.60;;;3.30;;
17398;SDS011;8817;48.170;8.592;2022-11-21T12:10:55;3.50;;;3.30;;
17398;SDS011;8817;48.170;8.592;2022-11-21T12:13:43;3.80;;;3.60;;
17398;SDS011;8817;48.170;8.592;2022-11-21T12:16:12;3.47;;;3.37;;
17398;SDS011;8817;48.170;8.592;2022-11-21T12:18:43;3.43;;;3.30;;
17398;SDS011;8817;48.170;8.592;2022-11-21T12:21:17;4.27;;;3.83;;
17398;SDS011;8817;48.170;8.592;2022-11-21T12:23:46;3.37;;;3.27;;
17398;SDS011;8817;48.170;8.592;2022-11-21T12:26:26;3.40;;;3.30;;
17398;SDS011;8817;48.170;8.592;2022-11-21T12:31:58;4.57;;;3.63;;
17398;SDS011;8817;48.170;8.592;2022-11-21T12:34:46;3.70;;;3.37;;
17398;SDS011;8817;48.170;8.592;2022-11-21T12:37:29;3.40;;;3.20;;
17398;SDS011;8817;48.170;8.592;2022-11-21T12:40:08;3.80;;;3.70;;
17398;SDS011;8817;48.170;8.592;2022-11-21T12:42:53;4.07;;;3.70;;
17398;SDS011;8817;48.170;8.592;2022-11-21T12:45:32;3.40;;;3.30;;
17398;SDS011;8817;48.170;8.592;2022-11-21T12:48:10;3.60;;;3.40;;
17398;SDS011;8817;48.170;8.592;2022-11-21T12:51:18;3.50;;;3.37;;
17398;SDS011;8817;48.170;8.592;2022-11-21T12:54:24;3.60;;;3.50;;
17398;SDS011;8817;48.170;8.592;2022-11-21T12:57:04;3.30;;;3.30;;
17398;SDS011;8817;48.170;8.592;2022-11-21T12:59:38;3.60;;;3.50;;
17398;SDS011;8817;48.170;8.592;2022-11-21T13:02:29;4.00;;;3.70;;
17398;SDS011;8817;48.170;8.592;2022-11-21T13:05:04;3.80;;;3.60;;
17398;SDS011;8817;48.170;8.592;2022-11-21T13:07:37;4.10;;;3.87;;
17398;SDS011;8817;48.170;8.592;2022-11-21T13:10:10;3.77;;;3.60;;
17398;SDS011;8817;48.170;8.592;2022-11-21T13:12:39;3.77;;;3.40;;
17398;SDS011;8817;48.170;8.592;2022-11-21T13:15:15;3.47;;;3.30;;
17398;SDS011;8817;48.170;8.592;2022-11-21T13:17:48;3.30;;;3.30;;
17398;SDS011;8817;48.170;8.592;2022-11-21T13:20:29;3.97;;;3.63;;
17398;SDS011;8817;48.170;8.592;2022-11-21T13:22:59;3.40;;;3.30;;
17398;SDS011;8817;48.170;8.592;2022-11-21T13:25:38;3.50;;;3.40;;
17398;SDS011;8817;48.170;8.592;2022-11-21T13:28:32;5.93;;;3.40;;
17398;SDS011;8817;48.170;8.592;2022-11-21T13:31:01;5.40;;;3.30;;
17398;SDS011;8817;48.170;8.592;2022-11-21T13:33:46;3.90;;;3.57;;
17398;SDS011;8817;48.170;8.592;2022-11-21T13:42:03;4.60;;;4.20;;
17398;SDS011;8817;48.170;8.592;2022-11-21T13:44:52;3.90;;;3.60;;
17398;SDS011;8817;48.170;8.592;2022-11-21T13:47:30;4.00;;;3.70;;
17398;SDS011;8817;48.170;8.592;2022-11-21T13:53:36;3.47;;;3.37;;
17398;SDS011;8817;48.170;8.592;2022-11-21T13:56:17;3.53;;;3.40;;
17398;SDS011;8817;48.170;8.592;2022-11-21T13:58:58;3.43;;;3.33;;
17398;SDS011;8817;48.170;8.592;2022-11-21T14:07:22;3.43;;;3.33;;
17398;SDS011;8817;48.170;8.592;2022-11-21T14:09:52;4.30;;;3.90;;
17398;SDS011;8817;48.170;8.592;2022-11-21T14:12:21;4.30;;;3.90;;
17398;SDS011;8817;48.170;8.592;2022-11-21T14:14:55;4.20;;;3.90;;
17398;SDS011;8817;48.170;8.592;2022-11-21T14:17:43;5.23;;;4.17;;
17398;SDS011;8817;48.170;8.592;2022-11-21T14:20:13;3.80;;;3.60;;
17398;SDS011;8817;48.170;8.592;2022-11-21T14:22:45;4.20;;;3.93;;
17398;SDS011;8817;48.170;8.592;2022-11-21T14:25:19;3.57;;;3.47;;
17398;SDS011;8817;48.170;8.592;2022-11-21T14:27:49;4.00;;;3.80;;
17398;SDS011;8817;48.170;8.592;2022-11-21T14:30:31;4.07;;;3.87;;
17398;SDS011;8817;48.170;8.592;2022-11-21T14:35:46;3.90;;;3.70;;
17398;SDS011;8817;48.170;8.592;2022-11-21T14:38:14;3.80;;;3.50;;
17398;SDS011;8817;48.170;8.592;2022-11-21T14:40:41;3.73;;;3.57;;
17398;SDS011;8817;48.170;8.592;2022-11-21T14:43:20;4.90;;;4.10;;
17398;SDS011;8817;48.170;8.592;2022-11-21T14:45:55;4.17;;;3.97;;
17398;SDS011;8817;48.170;8.592;2022-11-21T14:48:24;6.20;;;4.63;;
17398;SDS011;8817;48.170;8.592;2022-11-21T14:50:51;4.03;;;3.83;;
17398;SDS011;8817;48.170;8.592;2022-11-21T14:53:20;3.70;;;3.60;;
17398;SDS011;8817;48.170;8.592;2022-11-21T14:55:48;4.47;;;4.00;;
17398;SDS011;8817;48.170;8.592;2022-11-21T14:58:16;6.83;;;4.03;;
17398;SDS011;8817;48.170;8.592;2022-11-21T15:03:28;3.93;;;3.60;;
17398;SDS011;8817;48.170;8.592;2022-11-21T15:05:58;4.17;;;3.93;;
17398;SDS011;8817;48.170;8.592;2022-11-21T15:08:26;4.27;;;3.90;;
17398;SDS011;8817;48.170;8.592;2022-11-21T15:10:53;4.47;;;4.17;;
17398;SDS011;8817;48.170;8.592;2022-11-21T15:13:22;4.33;;;4.00;;
17398;SDS011;8817;48.170;8.592;2022-11-21T15:15:52;4.37;;;4.07;;
17398;SDS011;8817;48.170;8.592;2022-11-21T15:18:21;4.17;;;3.93;;
17398;SDS011;8817;48.170;8.592;2022-11-21T15:20:51;4.50;;;4.30;;
17398;SDS011;8817;48.170;8.592;2022-11-21T15:23:27;6.00;;;4.30;;
17398;SDS011;8817;48.170;8.592;2022-11-21T15:25:54;4.33;;;4.03;;
17398;SDS011;8817;48.170;8.592;2022-11-21T15:28:22;4.70;;;4.30;;
17398;SDS011;8817;48.170;8.592;2022-11-21T15:33:59;5.70;;;4.80;;
17398;SDS011;8817;48.170;8.592;2022-11-21T15:36:27;4.50;;;4.20;;
17398;SDS011;8817;48.170;8.592;2022-11-21T15:38:55;5.67;;;5.20;;
17398;SDS011;8817;48.170;8.592;2022-11-21T15:41:28;6.60;;;4.63;;
17398;SDS011;8817;48.170;8.592;2022-11-21T15:46:45;5.50;;;5.00;;
17398;SDS011;8817;48.170;8.592;2022-11-21T15:49:17;5.73;;;5.00;;
17398;SDS011;8817;48.170;8.592;2022-11-21T15:51:44;5.30;;;4.90;;
17398;SDS011;8817;48.170;8.592;2022-11-21T15:54:13;5.50;;;5.00;;